sensor_id;sensor_type;location;lat;lon;timestamp;P1;durP1;ratioP1;P2;durP2;ratioP2
46607;SDS011;32330;51.936;7.184;2023-03-20T04:48:55;32.15;;;26.80;;
46607;SDS011;32330;51.936;7.184;2023-03-20T04:51:26;25.92;;;20.17;;
46607;SDS011;32330;51.936;7.184;2023-03-20T04:53:53;24.73;;;19.83;;
46607;SDS011;32330;51.936;7.184;2023-03-20T04:56:21;24.13;;;18.95;;
46607;SDS011;32330;51.936;7.184;2023-03-20T04:58:50;23.17;;;18.55;;
46607;SDS011;32330;51.936;7.184;2023-03-20T05:01:19;23.25;;;18.38;;
46607;SDS011;32330;51.936;7.184;2023-03-20T05:03:47;24.38;;;18.70;;
46607;SDS011;32330;51.936;7.184;2023-03-20T05:06:16;26.13;;;17.92;;
46607;SDS011;32330;51.936;7.184;2023-03-20T05:08:43;25.38;;;18.17;;
46607;SDS011;32330;51.936;7.184;2023-03-20T05:11:10;21.88;;;17.27;;
46607;SDS011;32330;51.936;7.184;2023-03-20T05:14:00;34.95;;;25.65;;
46607;SDS011;32330;51.936;7.184;2023-03-20T05:16:40;20.30;;;14.45;;
46607;SDS011;32330;51.936;7.184;2023-03-20T05:19:28;18.70;;;13.73;;
46607;SDS011;32330;51.936;7.184;2023-03-20T05:22:15;17.98;;;12.70;;
46607;SDS011;32330;51.936;7.184;2023-03-20T05:25:03;15.32;;;11.82;;
46607;SDS011;32330;51.936;7.184;2023-03-20T05:28:05;18.02;;;12.77;;
46607;SDS011;32330;51.936;7.184;2023-03-20T05:30:47;17.55;;;13.68;;
46607;SDS011;32330;51.936;7.184;2023-03-20T05:33:35;16.08;;;11.38;;
46607;SDS011;32330;51.936;7.184;2023-03-20T05:36:11;15.27;;;11.18;;
46607;SDS011;32330;51.936;7.184;2023-03-20T05:38:54;16.10;;;11.97;;
46607;SDS011;32330;51.936;7.184;2023-03-20T05:41:37;19.13;;;12.00;;
46607;SDS011;32330;51.936;7.184;2023-03-20T05:44:23;16.02;;;10.63;;
46607;SDS011;32330;51.936;7.184;2023-03-20T05:47:05;15.15;;;11.18;;
46607;SDS011;32330;51.936;7.184;2023-03-20T05:49:53;14.07;;;10.52;;
46607;SDS011;32330;51.936;7.184;2023-03-20T05:52:27;14.57;;;10.35;;
46607;SDS011;32330;51.936;7.184;2023-03-20T05:55:14;13.23;;;10.50;;
46607;SDS011;32330;51.936;7.184;2023-03-20T05:57:59;13.00;;;10.50;;
46607;SDS011;32330;51.936;7.184;2023-03-20T06:00:58;14.80;;;10.32;;
46607;SDS011;32330;51.936;7.184;2023-03-20T06:03:54;13.98;;;11.02;;
46607;SDS011;32330;51.936;7.184;2023-03-20T06:06:45;14.35;;;10.40;;
46607;SDS011;32330;51.936;7.184;2023-03-20T06:09:12;15.20;;;11.02;;
46607;SDS011;32330;51.936;7.184;2023-03-20T06:11:40;16.13;;;11.23;;
46607;SDS011;32330;51.936;7.184;2023-03-20T06:14:07;16.70;;;12.10;;
46607;SDS011;32330;51.936;7.184;2023-03-20T06:16:37;14.52;;;10.25;;
46607;SDS011;32330;51.936;7.184;2023-03-20T06:19:04;13.85;;;10.48;;
46607;SDS011;32330;51.936;7.184;2023-03-20T06:21:31;14.00;;;10.02;;
46607;SDS011;32330;51.936;7.184;2023-03-20T06:23:58;12.68;;;9.90;;
46607;SDS011;32330;51.936;7.184;2023-03-20T06:26:27;15.77;;;10.23;;
46607;SDS011;32330;51.936;7.184;2023-03-20T06:29:03;12.50;;;10.27;;
46607;SDS011;32330;51.936;7.184;2023-03-20T06:31:31;12.13;;;9.30;;
46607;SDS011;32330;51.936;7.184;2023-03-20T06:34:00;16.20;;;11.10;;
46607;SDS011;32330;51.936;7.184;2023-03-20T06:36:30;13.65;;;10.43;;
46607;SDS011;32330;51.936;7.184;2023-03-20T06:39:03;12.50;;;10.13;;
46607;SDS011;32330;51.936;7.184;2023-03-20T06:41:32;12.25;;;9.57;;
46607;SDS011;32330;51.936;7.184;2023-03-20T06:44:00;13.45;;;10.05;;
46607;SDS011;32330;51.936;7.184;2023-03-20T06:46:43;12.93;;;9.50;;
46607;SDS011;32330;51.936;7.184;2023-03-20T06:49:10;12.75;;;9.82;;
46607;SDS011;32330;51.936;7.184;2023-03-20T06:51:37;13.57;;;9.65;;
46607;SDS011;32330;51.936;7.184;2023-03-20T06:54:04;14.45;;;10.15;;
46607;SDS011;32330;51.936;7.184;2023-03-20T06:56:31;13.15;;;9.48;;
46607;SDS011;32330;51.936;7.184;2023-03-20T06:58:58;14.63;;;10.52;;
46607;SDS011;32330;51.936;7.184;2023-03-20T07:01:25;14.15;;;10.63;;
46607;SDS011;32330;51.936;7.184;2023-03-20T07:03:54;14.98;;;9.88;;
46607;SDS011;32330;51.936;7.184;2023-03-20T07:06:26;14.55;;;9.95;;
46607;SDS011;32330;51.936;7.184;2023-03-20T07:08:52;21.92;;;12.43;;
46607;SDS011;32330;51.936;7.184;2023-03-20T07:11:20;15.25;;;10.15;;
46607;SDS011;32330;51.936;7.184;2023-03-20T07:13:47;15.23;;;9.80;;
46607;SDS011;32330;51.936;7.184;2023-03-20T07:16:25;13.85;;;9.65;;
46607;SDS011;32330;51.936;7.184;2023-03-20T07:18:53;14.60;;;11.35;;
46607;SDS011;32330;51.936;7.184;2023-03-20T07:21:21;16.90;;;10.25;;
46607;SDS011;32330;51.936;7.184;2023-03-20T07:23:49;13.43;;;9.95;;
46607;SDS011;32330;51.936;7.184;2023-03-20T07:26:16;12.80;;;9.63;;
46607;SDS011;32330;51.936;7.184;2023-03-20T07:28:43;16.15;;;10.48;;
46607;SDS011;32330;51.936;7.184;2023-03-20T07:31:22;12.63;;;9.30;;
46607;SDS011;32330;51.936;7.184;2023-03-20T07:34:00;13.05;;;9.15;;
46607;SDS011;32330;51.936;7.184;2023-03-20T07:36:28;13.30;;;9.57;;
46607;SDS011;32330;51.936;7.184;2023-03-20T07:38:55;14.85;;;9.10;;
46607;SDS011;32330;51.936;7.184;2023-03-20T07:41:22;13.25;;;8.30;;
46607;SDS011;32330;51.936;7.184;2023-03-20T07:44:00;12.57;;;8.00;;
46607;SDS011;32330;51.936;7.184;2023-03-20T07:46:46;16.27;;;9.38;;
46607;SDS011;32330;51.936;7.184;2023-03-20T07:49:15;13.07;;;9.48;;
46607;SDS011;32330;51.936;7.184;2023-03-20T07:51:44;14.90;;;9.10;;
46607;SDS011;32330;51.936;7.184;2023-03-20T07:54:11;14.50;;;8.85;;
46607;SDS011;32330;51.936;7.184;2023-03-20T07:56:39;14.50;;;9.23;;
46607;SDS011;32330;51.936;7.184;2023-03-20T07:59:07;13.82;;;8.65;;
46607;SDS011;32330;51.936;7.184;2023-03-20T08:01:34;11.40;;;8.38;;
46607;SDS011;32330;51.936;7.184;2023-03-20T08:04:01;12.15;;;8.70;;
46607;SDS011;32330;51.936;7.184;2023-03-20T08:06:29;13.48;;;8.75;;
46607;SDS011;32330;51.936;7.184;2023-03-20T08:08:56;12.02;;;8.05;;
46607;SDS011;32330;51.936;7.184;2023-03-20T08:11:23;13.13;;;8.02;;
46607;SDS011;32330;51.936;7.184;2023-03-20T08:13:50;12.48;;;7.95;;
46607;SDS011;32330;51.936;7.184;2023-03-20T08:16:17;13.50;;;7.25;;
46607;SDS011;32330;51.936;7.184;2023-03-20T08:18:44;12.52;;;7.82;;
46607;SDS011;32330;51.936;7.184;2023-03-20T08:21:11;11.00;;;6.95;;
46607;SDS011;32330;51.936;7.184;2023-03-20T08:23:39;14.00;;;6.88;;
46607;SDS011;32330;51.936;7.184;2023-03-20T08:26:06;13.70;;;7.40;;
46607;SDS011;32330;51.936;7.184;2023-03-20T08:28:33;10.45;;;6.55;;
46607;SDS011;32330;51.936;7.184;2023-03-20T08:31:00;9.95;;;6.47;;
46607;SDS011;32330;51.936;7.184;2023-03-20T08:33:28;11.38;;;7.95;;
46607;SDS011;32330;51.936;7.184;2023-03-20T08:35:55;12.80;;;6.90;;
46607;SDS011;32330;51.936;7.184;2023-03-20T08:38:23;10.98;;;6.00;;
46607;SDS011;32330;51.936;7.184;2023-03-20T08:40:51;9.48;;;5.00;;
46607;SDS011;32330;51.936;7.184;2023-03-20T08:43:19;8.65;;;5.50;;
46607;SDS011;32330;51.936;7.184;2023-03-20T08:45:46;9.23;;;5.45;;
46607;SDS011;32330;51.936;7.184;2023-03-20T08:48:13;7.75;;;4.65;;
46607;SDS011;32330;51.936;7.184;2023-03-20T08:50:40;8.93;;;5.10;;
46607;SDS011;32330;51.936;7.184;2023-03-20T08:53:09;7.22;;;4.40;;
46607;SDS011;32330;51.936;7.184;2023-03-20T08:55:36;8.00;;;4.70;;
46607;SDS011;32330;51.936;7.184;2023-03-20T08:58:04;6.07;;;4.40;;
46607;SDS011;32330;51.936;7.184;2023-03-20T09:00:31;6.38;;;3.85;;
46607;SDS011;32330;51.936;7.184;2023-03-20T09:02:58;8.88;;;4.90;;
46607;SDS011;32330;51.936;7.184;2023-03-20T09:05:25;7.70;;;4.28;;
46607;SDS011;32330;51.936;7.184;2023-03-20T09:07:52;6.60;;;4.18;;
46607;SDS011;32330;51.936;7.184;2023-03-20T09:10:19;7.45;;;4.45;;
46607;SDS011;32330;51.936;7.184;2023-03-20T09:12:46;8.07;;;4.60;;
46607;SDS011;32330;51.936;7.184;2023-03-20T09:15:14;10.02;;;5.22;;
46607;SDS011;32330;51.936;7.184;2023-03-20T09:17:41;7.78;;;4.45;;
46607;SDS011;32330;51.936;7.184;2023-03-20T09:20:08;7.68;;;4.40;;
46607;SDS011;32330;51.936;7.184;2023-03-20T09:22:36;7.47;;;4.40;;
46607;SDS011;32330;51.936;7.184;2023-03-20T09:25:05;9.75;;;4.63;;
46607;SDS011;32330;51.936;7.184;2023-03-20T09:27:33;6.88;;;4.15;;
46607;SDS011;32330;51.936;7.184;2023-03-20T09:30:00;10.55;;;5.13;;
46607;SDS011;32330;51.936;7.184;2023-03-20T09:32:28;8.18;;;4.00;;
46607;SDS011;32330;51.936;7.184;2023-03-20T09:34:55;8.57;;;3.95;;
46607;SDS011;32330;51.936;7.184;2023-03-20T09:37:22;9.75;;;4.20;;
46607;SDS011;32330;51.936;7.184;2023-03-20T09:39:49;9.80;;;3.80;;
46607;SDS011;32330;51.936;7.184;2023-03-20T09:42:22;5.85;;;3.15;;
46607;SDS011;32330;51.936;7.184;2023-03-20T09:45:00;6.40;;;4.10;;
46607;SDS011;32330;51.936;7.184;2023-03-20T09:47:38;9.02;;;4.13;;
46607;SDS011;32330;51.936;7.184;2023-03-20T09:50:16;8.90;;;3.58;;
46607;SDS011;32330;51.936;7.184;2023-03-20T09:52:52;6.63;;;3.95;;
46607;SDS011;32330;51.936;7.184;2023-03-20T09:55:25;7.88;;;3.75;;
46607;SDS011;32330;51.936;7.184;2023-03-20T09:58:00;8.73;;;4.65;;
46607;SDS011;32330;51.936;7.184;2023-03-20T10:00:30;5.97;;;3.45;;
46607;SDS011;32330;51.936;7.184;2023-03-20T10:03:02;7.82;;;4.32;;
46607;SDS011;32330;51.936;7.184;2023-03-20T10:05:30;7.32;;;2.88;;
46607;SDS011;32330;51.936;7.184;2023-03-20T10:08:03;6.57;;;3.38;;
46607;SDS011;32330;51.936;7.184;2023-03-20T10:10:35;7.35;;;3.63;;
46607;SDS011;32330;51.936;7.184;2023-03-20T10:13:15;7.45;;;2.97;;
46607;SDS011;32330;51.936;7.184;2023-03-20T10:16:16;7.45;;;3.00;;
46607;SDS011;32330;51.936;7.184;2023-03-20T10:18:53;5.10;;;2.90;;
46607;SDS011;32330;51.936;7.184;2023-03-20T10:21:28;6.32;;;3.05;;
46607;SDS011;32330;51.936;7.184;2023-03-20T10:24:03;4.88;;;2.38;;
46607;SDS011;32330;51.936;7.184;2023-03-20T10:26:32;4.32;;;2.30;;
46607;SDS011;32330;51.936;7.184;2023-03-20T10:29:02;6.20;;;2.53;;
46607;SDS011;32330;51.936;7.184;2023-03-20T10:31:38;4.45;;;1.80;;
46607;SDS011;32330;51.936;7.184;2023-03-20T10:34:19;4.55;;;2.00;;
46607;SDS011;32330;51.936;7.184;2023-03-20T10:37:03;3.58;;;1.90;;
46607;SDS011;32330;51.936;7.184;2023-03-20T10:39:48;4.35;;;2.22;;
46607;SDS011;32330;51.936;7.184;2023-03-20T10:42:23;4.78;;;2.45;;
46607;SDS011;32330;51.936;7.184;2023-03-20T10:44:55;5.30;;;2.10;;
46607;SDS011;32330;51.936;7.184;2023-03-20T10:47:27;3.80;;;2.03;;
46607;SDS011;32330;51.936;7.184;2023-03-20T10:50:00;4.95;;;2.28;;
46607;SDS011;32330;51.936;7.184;2023-03-20T10:52:31;6.93;;;2.33;;
46607;SDS011;32330;51.936;7.184;2023-03-20T10:55:03;4.07;;;2.13;;
46607;SDS011;32330;51.936;7.184;2023-03-20T10:57:32;5.80;;;2.40;;
46607;SDS011;32330;51.936;7.184;2023-03-20T11:00:02;5.15;;;2.20;;
46607;SDS011;32330;51.936;7.184;2023-03-20T11:02:35;6.93;;;2.25;;
46607;SDS011;32330;51.936;7.184;2023-03-20T11:05:06;4.43;;;2.30;;
46607;SDS011;32330;51.936;7.184;2023-03-20T11:07:45;5.75;;;2.50;;
46607;SDS011;32330;51.936;7.184;2023-03-20T11:10:15;4.97;;;1.85;;
46607;SDS011;32330;51.936;7.184;2023-03-20T11:12:43;5.60;;;2.30;;
46607;SDS011;32330;51.936;7.184;2023-03-20T11:15:14;4.60;;;2.08;;
46607;SDS011;32330;51.936;7.184;2023-03-20T11:17:50;6.65;;;2.50;;
46607;SDS011;32330;51.936;7.184;2023-03-20T11:20:19;4.90;;;2.38;;
46607;SDS011;32330;51.936;7.184;2023-03-20T11:22:47;7.70;;;3.05;;
46607;SDS011;32330;51.936;7.184;2023-03-20T11:25:22;6.70;;;2.38;;
46607;SDS011;32330;51.936;7.184;2023-03-20T11:27:51;5.20;;;2.47;;
46607;SDS011;32330;51.936;7.184;2023-03-20T11:30:21;8.90;;;2.70;;
46607;SDS011;32330;51.936;7.184;2023-03-20T11:32:48;7.38;;;2.60;;
46607;SDS011;32330;51.936;7.184;2023-03-20T11:35:26;4.88;;;2.97;;
46607;SDS011;32330;51.936;7.184;2023-03-20T11:38:06;5.15;;;2.55;;
46607;SDS011;32330;51.936;7.184;2023-03-20T11:40:36;5.78;;;2.67;;
46607;SDS011;32330;51.936;7.184;2023-03-20T11:43:07;9.20;;;5.28;;
46607;SDS011;32330;51.936;7.184;2023-03-20T11:45:37;7.88;;;3.10;;
46607;SDS011;32330;51.936;7.184;2023-03-20T11:48:05;6.13;;;3.10;;
46607;SDS011;32330;51.936;7.184;2023-03-20T11:50:46;4.60;;;2.85;;
46607;SDS011;32330;51.936;7.184;2023-03-20T11:53:18;6.28;;;3.28;;
46607;SDS011;32330;51.936;7.184;2023-03-20T11:56:04;6.80;;;3.55;;
46607;SDS011;32330;51.936;7.184;2023-03-20T11:58:36;7.05;;;3.60;;
46607;SDS011;32330;51.936;7.184;2023-03-20T12:01:06;7.57;;;3.53;;
46607;SDS011;32330;51.936;7.184;2023-03-20T12:03:44;11.38;;;3.67;;
46607;SDS011;32330;51.936;7.184;2023-03-20T12:06:21;8.23;;;3.95;;
46607;SDS011;32330;51.936;7.184;2023-03-20T12:08:52;7.68;;;4.20;;
46607;SDS011;32330;51.936;7.184;2023-03-20T12:11:34;9.25;;;3.63;;
46607;SDS011;32330;51.936;7.184;2023-03-20T12:14:15;7.30;;;3.63;;
46607;SDS011;32330;51.936;7.184;2023-03-20T12:16:48;7.63;;;3.88;;
46607;SDS011;32330;51.936;7.184;2023-03-20T12:19:19;5.03;;;3.43;;
46607;SDS011;32330;51.936;7.184;2023-03-20T12:21:53;6.75;;;3.10;;
46607;SDS011;32330;51.936;7.184;2023-03-20T12:24:26;7.78;;;3.15;;
46607;SDS011;32330;51.936;7.184;2023-03-20T12:27:04;5.35;;;2.72;;
46607;SDS011;32330;51.936;7.184;2023-03-20T12:29:42;8.40;;;3.83;;
46607;SDS011;32330;51.936;7.184;2023-03-20T12:32:14;4.93;;;2.78;;
46607;SDS011;32330;51.936;7.184;2023-03-20T12:37:15;5.10;;;2.67;;
46607;SDS011;32330;51.936;7.184;2023-03-20T12:39:44;7.25;;;2.92;;
46607;SDS011;32330;51.936;7.184;2023-03-20T12:42:16;6.85;;;2.92;;
46607;SDS011;32330;51.936;7.184;2023-03-20T12:44:52;7.22;;;3.20;;
46607;SDS011;32330;51.936;7.184;2023-03-20T12:47:37;8.68;;;3.80;;
46607;SDS011;32330;51.936;7.184;2023-03-20T12:50:19;5.35;;;3.38;;
46607;SDS011;32330;51.936;7.184;2023-03-20T12:53:00;9.15;;;3.78;;
46607;SDS011;32330;51.936;7.184;2023-03-20T12:55:44;5.32;;;3.25;;
46607;SDS011;32330;51.936;7.184;2023-03-20T12:58:22;7.45;;;3.78;;
46607;SDS011;32330;51.936;7.184;2023-03-20T13:00:59;8.27;;;4.05;;
46607;SDS011;32330;51.936;7.184;2023-03-20T13:03:32;9.00;;;3.65;;
46607;SDS011;32330;51.936;7.184;2023-03-20T13:06:18;7.60;;;4.10;;
46607;SDS011;32330;51.936;7.184;2023-03-20T13:09:01;9.32;;;4.45;;
46607;SDS011;32330;51.936;7.184;2023-03-20T13:11:53;7.57;;;3.30;;
46607;SDS011;32330;51.936;7.184;2023-03-20T13:14:30;10.35;;;4.43;;
46607;SDS011;32330;51.936;7.184;2023-03-20T13:17:09;7.20;;;4.10;;
46607;SDS011;32330;51.936;7.184;2023-03-20T13:19:41;8.48;;;3.65;;
46607;SDS011;32330;51.936;7.184;2023-03-20T13:22:16;8.07;;;3.78;;
46607;SDS011;32330;51.936;7.184;2023-03-20T13:24:53;7.78;;;3.55;;
46607;SDS011;32330;51.936;7.184;2023-03-20T13:27:28;7.40;;;3.88;;
46607;SDS011;32330;51.936;7.184;2023-03-20T13:30:00;7.18;;;3.53;;
46607;SDS011;32330;51.936;7.184;2023-03-20T13:32:37;7.32;;;3.50;;
46607;SDS011;32330;51.936;7.184;2023-03-20T13:35:29;10.20;;;3.83;;
46607;SDS011;32330;51.936;7.184;2023-03-20T13:38:08;9.52;;;4.10;;
46607;SDS011;32330;51.936;7.184;2023-03-20T13:40:41;7.20;;;3.72;;
46607;SDS011;32330;51.936;7.184;2023-03-20T13:43:13;7.85;;;3.90;;
46607;SDS011;32330;51.936;7.184;2023-03-20T13:45:49;8.70;;;3.28;;
46607;SDS011;32330;51.936;7.184;2023-03-20T13:48:23;7.18;;;3.33;;
46607;SDS011;32330;51.936;7.184;2023-03-20T13:50:58;6.55;;;3.17;;
46607;SDS011;32330;51.936;7.184;2023-03-20T13:53:34;5.03;;;2.40;;
46607;SDS011;32330;51.936;7.184;2023-03-20T13:56:10;5.78;;;2.75;;
46607;SDS011;32330;51.936;7.184;2023-03-20T13:58:51;5.72;;;2.70;;
46607;SDS011;32330;51.936;7.184;2023-03-20T14:01:40;5.80;;;2.45;;
46607;SDS011;32330;51.936;7.184;2023-03-20T14:04:15;4.55;;;2.60;;
46607;SDS011;32330;51.936;7.184;2023-03-20T14:06:50;5.70;;;3.25;;
46607;SDS011;32330;51.936;7.184;2023-03-20T14:09:28;5.95;;;2.90;;
46607;SDS011;32330;51.936;7.184;2023-03-20T14:12:03;5.75;;;2.40;;
46607;SDS011;32330;51.936;7.184;2023-03-20T14:14:39;9.20;;;2.95;;
46607;SDS011;32330;51.936;7.184;2023-03-20T14:17:12;6.00;;;2.20;;
46607;SDS011;32330;51.936;7.184;2023-03-20T14:19:43;5.13;;;2.67;;
46607;SDS011;32330;51.936;7.184;2023-03-20T14:22:14;6.35;;;2.75;;
46607;SDS011;32330;51.936;7.184;2023-03-20T14:24:46;4.72;;;2.55;;
46607;SDS011;32330;51.936;7.184;2023-03-20T14:27:19;6.82;;;2.65;;
46607;SDS011;32330;51.936;7.184;2023-03-20T14:29:47;5.10;;;2.88;;
46607;SDS011;32330;51.936;7.184;2023-03-20T14:32:22;5.90;;;2.65;;
46607;SDS011;32330;51.936;7.184;2023-03-20T14:34:59;10.27;;;3.45;;
46607;SDS011;32330;51.936;7.184;2023-03-20T14:40:20;5.68;;;3.28;;
46607;SDS011;32330;51.936;7.184;2023-03-20T14:42:51;7.97;;;3.40;;
46607;SDS011;32330;51.936;7.184;2023-03-20T14:45:30;6.35;;;3.00;;
46607;SDS011;32330;51.936;7.184;2023-03-20T14:48:07;7.20;;;4.70;;
46607;SDS011;32330;51.936;7.184;2023-03-20T14:50:48;5.50;;;2.95;;
46607;SDS011;32330;51.936;7.184;2023-03-20T14:53:19;8.60;;;3.20;;
46607;SDS011;32330;51.936;7.184;2023-03-20T14:56:00;6.72;;;3.75;;
46607;SDS011;32330;51.936;7.184;2023-03-20T14:58:42;6.63;;;2.95;;
46607;SDS011;32330;51.936;7.184;2023-03-20T15:01:14;8.20;;;3.20;;
46607;SDS011;32330;51.936;7.184;2023-03-20T15:03:45;6.65;;;3.15;;
46607;SDS011;32330;51.936;7.184;2023-03-20T15:06:16;7.43;;;3.13;;
46607;SDS011;32330;51.936;7.184;2023-03-20T15:08:46;5.30;;;3.78;;
46607;SDS011;32330;51.936;7.184;2023-03-20T15:11:17;5.40;;;3.60;;
46607;SDS011;32330;51.936;7.184;2023-03-20T15:13:47;6.68;;;3.30;;
46607;SDS011;32330;51.936;7.184;2023-03-20T15:16:16;6.30;;;3.60;;
46607;SDS011;32330;51.936;7.184;2023-03-20T15:18:50;7.05;;;3.90;;
46607;SDS011;32330;51.936;7.184;2023-03-20T15:21:18;6.93;;;3.83;;
46607;SDS011;32330;51.936;7.184;2023-03-20T15:23:48;8.02;;;3.33;;
46607;SDS011;32330;51.936;7.184;2023-03-20T15:26:17;7.40;;;4.03;;
46607;SDS011;32330;51.936;7.184;2023-03-20T15:28:51;9.18;;;3.67;;
46607;SDS011;32330;51.936;7.184;2023-03-20T15:31:26;6.93;;;3.97;;
46607;SDS011;32330;51.936;7.184;2023-03-20T15:33:55;8.25;;;3.83;;
46607;SDS011;32330;51.936;7.184;2023-03-20T15:36:23;8.07;;;4.15;;
46607;SDS011;32330;51.936;7.184;2023-03-20T15:38:52;8.68;;;3.90;;
46607;SDS011;32330;51.936;7.184;2023-03-20T15:41:27;10.85;;;5.38;;
46607;SDS011;32330;51.936;7.184;2023-03-20T15:44:02;9.05;;;4.70;;
46607;SDS011;32330;51.936;7.184;2023-03-20T15:46:37;10.00;;;4.07;;
46607;SDS011;32330;51.936;7.184;2023-03-20T15:49:04;8.90;;;4.88;;
46607;SDS011;32330;51.936;7.184;2023-03-20T15:51:31;8.57;;;5.10;;
46607;SDS011;32330;51.936;7.184;2023-03-20T15:54:00;10.82;;;4.38;;
46607;SDS011;32330;51.936;7.184;2023-03-20T15:56:32;9.95;;;4.80;;
46607;SDS011;32330;51.936;7.184;2023-03-20T15:59:01;12.27;;;5.78;;
46607;SDS011;32330;51.936;7.184;2023-03-20T16:01:29;9.15;;;5.20;;
46607;SDS011;32330;51.936;7.184;2023-03-20T16:03:57;12.32;;;5.05;;
46607;SDS011;32330;51.936;7.184;2023-03-20T16:06:25;11.32;;;6.30;;
46607;SDS011;32330;51.936;7.184;2023-03-20T16:08:57;9.70;;;5.53;;
46607;SDS011;32330;51.936;7.184;2023-03-20T16:11:32;10.00;;;4.85;;
46607;SDS011;32330;51.936;7.184;2023-03-20T16:14:03;8.98;;;4.85;;
46607;SDS011;32330;51.936;7.184;2023-03-20T16:16:31;7.07;;;4.53;;
46607;SDS011;32330;51.936;7.184;2023-03-20T16:19:02;9.23;;;4.22;;
46607;SDS011;32330;51.936;7.184;2023-03-20T16:21:30;8.98;;;4.28;;
46607;SDS011;32330;51.936;7.184;2023-03-20T16:23:59;12.15;;;4.43;;
46607;SDS011;32330;51.936;7.184;2023-03-20T16:26:35;8.20;;;4.13;;
46607;SDS011;32330;51.936;7.184;2023-03-20T16:29:08;9.25;;;4.10;;
46607;SDS011;32330;51.936;7.184;2023-03-20T16:31:40;8.90;;;4.15;;
46607;SDS011;32330;51.936;7.184;2023-03-20T16:34:14;7.85;;;4.47;;
46607;SDS011;32330;51.936;7.184;2023-03-20T16:36:48;11.27;;;4.63;;
46607;SDS011;32330;51.936;7.184;2023-03-20T16:39:18;12.63;;;5.13;;
46607;SDS011;32330;51.936;7.184;2023-03-20T16:41:46;12.15;;;5.38;;
46607;SDS011;32330;51.936;7.184;2023-03-20T16:44:28;9.13;;;5.03;;
46607;SDS011;32330;51.936;7.184;2023-03-20T16:46:58;10.57;;;5.13;;
46607;SDS011;32330;51.936;7.184;2023-03-20T16:52:18;12.30;;;5.30;;
46607;SDS011;32330;51.936;7.184;2023-03-20T16:54:51;9.15;;;4.50;;
46607;SDS011;32330;51.936;7.184;2023-03-20T16:57:21;9.40;;;4.22;;
46607;SDS011;32330;51.936;7.184;2023-03-20T16:59:49;9.63;;;4.93;;
46607;SDS011;32330;51.936;7.184;2023-03-20T17:02:22;12.45;;;6.72;;
46607;SDS011;32330;51.936;7.184;2023-03-20T17:04:53;12.23;;;5.05;;
46607;SDS011;32330;51.936;7.184;2023-03-20T17:07:21;10.60;;;4.70;;
46607;SDS011;32330;51.936;7.184;2023-03-20T17:09:53;14.73;;;5.15;;
46607;SDS011;32330;51.936;7.184;2023-03-20T17:12:22;11.38;;;5.10;;
46607;SDS011;32330;51.936;7.184;2023-03-20T17:14:52;16.90;;;6.63;;
46607;SDS011;32330;51.936;7.184;2023-03-20T17:17:19;11.27;;;5.63;;
46607;SDS011;32330;51.936;7.184;2023-03-20T17:19:49;11.68;;;6.45;;
46607;SDS011;32330;51.936;7.184;2023-03-20T17:22:18;12.30;;;5.70;;
46607;SDS011;32330;51.936;7.184;2023-03-20T17:24:46;16.92;;;7.20;;
46607;SDS011;32330;51.936;7.184;2023-03-20T17:27:13;13.35;;;6.63;;
46607;SDS011;32330;51.936;7.184;2023-03-20T17:29:42;11.00;;;6.38;;
46607;SDS011;32330;51.936;7.184;2023-03-20T17:32:12;23.27;;;10.95;;
46607;SDS011;32330;51.936;7.184;2023-03-20T17:34:41;15.50;;;8.43;;
46607;SDS011;32330;51.936;7.184;2023-03-20T17:37:10;12.93;;;7.22;;
46607;SDS011;32330;51.936;7.184;2023-03-20T17:39:38;13.20;;;6.87;;
46607;SDS011;32330;51.936;7.184;2023-03-20T17:42:08;13.27;;;6.53;;
46607;SDS011;32330;51.936;7.184;2023-03-20T17:44:43;16.13;;;7.65;;
46607;SDS011;32330;51.936;7.184;2023-03-20T17:47:13;13.38;;;7.57;;
46607;SDS011;32330;51.936;7.184;2023-03-20T17:49:41;13.95;;;7.10;;
46607;SDS011;32330;51.936;7.184;2023-03-20T17:52:09;12.70;;;5.57;;
46607;SDS011;32330;51.936;7.184;2023-03-20T17:54:39;14.60;;;6.88;;
46607;SDS011;32330;51.936;7.184;2023-03-20T17:57:08;11.75;;;6.80;;
46607;SDS011;32330;51.936;7.184;2023-03-20T17:59:43;13.57;;;6.70;;
46607;SDS011;32330;51.936;7.184;2023-03-20T18:02:10;8.63;;;5.38;;
46607;SDS011;32330;51.936;7.184;2023-03-20T18:04:38;13.80;;;5.95;;
46607;SDS011;32330;51.936;7.184;2023-03-20T18:07:05;13.70;;;7.28;;
46607;SDS011;32330;51.936;7.184;2023-03-20T18:09:34;12.18;;;5.63;;
46607;SDS011;32330;51.936;7.184;2023-03-20T18:12:01;10.02;;;6.45;;
46607;SDS011;32330;51.936;7.184;2023-03-20T18:14:28;16.38;;;5.95;;
46607;SDS011;32330;51.936;7.184;2023-03-20T18:16:55;11.65;;;6.18;;
46607;SDS011;32330;51.936;7.184;2023-03-20T18:19:22;11.68;;;6.78;;
46607;SDS011;32330;51.936;7.184;2023-03-20T18:21:54;16.73;;;7.85;;
46607;SDS011;32330;51.936;7.184;2023-03-20T18:24:22;16.58;;;7.90;;
46607;SDS011;32330;51.936;7.184;2023-03-20T18:26:49;10.98;;;6.00;;
46607;SDS011;32330;51.936;7.184;2023-03-20T18:29:19;14.45;;;6.05;;
46607;SDS011;32330;51.936;7.184;2023-03-20T18:31:47;10.02;;;6.53;;
46607;SDS011;32330;51.936;7.184;2023-03-20T18:34:14;12.70;;;4.93;;
46607;SDS011;32330;51.936;7.184;2023-03-20T18:36:42;12.00;;;6.20;;
46607;SDS011;32330;51.936;7.184;2023-03-20T18:39:11;12.32;;;6.05;;
46607;SDS011;32330;51.936;7.184;2023-03-20T18:41:41;9.35;;;6.05;;
46607;SDS011;32330;51.936;7.184;2023-03-20T18:44:08;9.90;;;5.97;;
46607;SDS011;32330;51.936;7.184;2023-03-20T18:46:35;12.25;;;5.90;;
46607;SDS011;32330;51.936;7.184;2023-03-20T18:49:02;12.98;;;6.85;;
46607;SDS011;32330;51.936;7.184;2023-03-20T18:51:30;18.45;;;6.07;;
46607;SDS011;32330;51.936;7.184;2023-03-20T18:53:57;14.45;;;6.38;;
46607;SDS011;32330;51.936;7.184;2023-03-20T18:56:26;13.98;;;5.88;;
46607;SDS011;32330;51.936;7.184;2023-03-20T18:58:53;10.32;;;5.95;;
46607;SDS011;32330;51.936;7.184;2023-03-20T19:01:20;13.23;;;6.30;;
46607;SDS011;32330;51.936;7.184;2023-03-20T19:03:47;12.15;;;6.55;;
46607;SDS011;32330;51.936;7.184;2023-03-20T19:06:18;12.13;;;6.80;;
46607;SDS011;32330;51.936;7.184;2023-03-20T19:08:47;12.13;;;6.75;;
46607;SDS011;32330;51.936;7.184;2023-03-20T19:11:15;13.23;;;6.93;;
46607;SDS011;32330;51.936;7.184;2023-03-20T19:13:45;11.73;;;6.22;;
46607;SDS011;32330;51.936;7.184;2023-03-20T19:16:19;16.20;;;6.45;;
46607;SDS011;32330;51.936;7.184;2023-03-20T19:18:48;14.23;;;6.18;;
46607;SDS011;32330;51.936;7.184;2023-03-20T19:21:16;11.25;;;6.47;;
46607;SDS011;32330;51.936;7.184;2023-03-20T19:23:43;15.07;;;7.22;;
46607;SDS011;32330;51.936;7.184;2023-03-20T19:26:14;9.75;;;6.32;;
46607;SDS011;32330;51.936;7.184;2023-03-20T19:28:43;17.33;;;7.07;;
46607;SDS011;32330;51.936;7.184;2023-03-20T19:31:13;14.88;;;6.82;;
46607;SDS011;32330;51.936;7.184;2023-03-20T19:33:40;11.68;;;6.68;;
46607;SDS011;32330;51.936;7.184;2023-03-20T19:36:12;10.68;;;6.28;;
46607;SDS011;32330;51.936;7.184;2023-03-20T19:38:46;14.88;;;6.82;;
46607;SDS011;32330;51.936;7.184;2023-03-20T19:41:13;16.67;;;7.70;;
46607;SDS011;32330;51.936;7.184;2023-03-20T19:43:40;12.82;;;7.00;;
46607;SDS011;32330;51.936;7.184;2023-03-20T19:46:08;10.07;;;6.22;;
46607;SDS011;32330;51.936;7.184;2023-03-20T19:48:38;13.25;;;6.57;;
46607;SDS011;32330;51.936;7.184;2023-03-20T19:51:07;10.80;;;6.10;;
46607;SDS011;32330;51.936;7.184;2023-03-20T19:53:38;12.27;;;6.30;;
46607;SDS011;32330;51.936;7.184;2023-03-20T19:56:05;10.02;;;5.55;;
46607;SDS011;32330;51.936;7.184;2023-03-20T19:58:32;12.20;;;5.30;;
46607;SDS011;32330;51.936;7.184;2023-03-20T20:00:59;12.85;;;6.00;;
46607;SDS011;32330;51.936;7.184;2023-03-20T20:03:28;15.60;;;6.50;;